sensor_id;sensor_type;location;lat;lon;timestamp;temperature;humidity
54178;DHT22;40085;53.004;6.770;2022-09-03T00:02:13;15.80;99.90
54178;DHT22;40085;53.004;6.770;2022-09-03T00:05:21;15.80;99.90
54178;DHT22;40085;53.004;6.770;2022-09-03T00:10:28;15.70;99.90
54178;DHT22;40085;53.004;6.770;2022-09-03T00:12:59;15.90;99.90
54178;DHT22;40085;53.004;6.770;2022-09-03T00:15:28;15.60;99.90
54178;DHT22;40085;53.004;6.770;2022-09-03T00:18:03;15.60;99.90
54178;DHT22;40085;53.004;6.770;2022-09-03T00:23:36;15.50;99.90
54178;DHT22;40085;53.004;6.770;2022-09-03T00:28:44;15.40;99.90
54178;DHT22;40085;53.004;6.770;2022-09-03T00:33:45;15.30;99.90
54178;DHT22;40085;53.004;6.770;2022-09-03T00:36:17;15.30;99.90
54178;DHT22;40085;53.004;6.770;2022-09-03T00:38:44;15.30;99.90
54178;DHT22;40085;53.004;6.770;2022-09-03T00:41:36;15.40;99.90
54178;DHT22;40085;53.004;6.770;2022-09-03T00:47:03;15.20;99.90
54178;DHT22;40085;53.004;6.770;2022-09-03T00:49:39;15.40;99.90
54178;DHT22;40085;53.004;6.770;2022-09-03T00:52:43;15.20;99.90
54178;DHT22;40085;53.004;6.770;2022-09-03T00:58:06;15.10;99.90
54178;DHT22;40085;53.004;6.770;2022-09-03T01:00:40;15.10;99.90
54178;DHT22;40085;53.004;6.770;2022-09-03T01:03:11;15.10;99.90
54178;DHT22;40085;53.004;6.770;2022-09-03T01:06:10;15.00;99.90
54178;DHT22;40085;53.004;6.770;2022-09-03T01:11:29;15.00;99.90
54178;DHT22;40085;53.004;6.770;2022-09-03T01:19:44;14.90;99.90
54178;DHT22;40085;53.004;6.770;2022-09-03T01:30:22;14.80;99.90
54178;DHT22;40085;53.004;6.770;2022-09-03T01:38:49;14.70;99.90
54178;DHT22;40085;53.004;6.770;2022-09-03T01:41:28;14.60;99.90
54178;DHT22;40085;53.004;6.770;2022-09-03T01:48:02;14.50;99.90
54178;DHT22;40085;53.004;6.770;2022-09-03T01:50:16;14.50;99.90
54178;DHT22;40085;53.004;6.770;2022-09-03T01:52:58;14.50;99.90
54178;DHT22;40085;53.004;6.770;2022-09-03T01:55:47;14.50;99.90
54178;DHT22;40085;53.004;6.770;2022-09-03T01:58:31;14.40;99.90
54178;DHT22;40085;53.004;6.770;2022-09-03T02:01:08;14.40;99.90
54178;DHT22;40085;53.004;6.770;2022-09-03T02:03:40;14.40;99.90
54178;DHT22;40085;53.004;6.770;2022-09-03T02:06:08;14.60;99.90
54178;DHT22;40085;53.004;6.770;2022-09-03T02:08:35;14.30;99.90
54178;DHT22;40085;53.004;6.770;2022-09-03T02:11:03;14.30;99.90
54178;DHT22;40085;53.004;6.770;2022-09-03T02:13:31;14.30;99.90
54178;DHT22;40085;53.004;6.770;2022-09-03T02:16:02;14.30;99.90
54178;DHT22;40085;53.004;6.770;2022-09-03T02:18:35;14.40;99.90
54178;DHT22;40085;53.004;6.770;2022-09-03T02:21:01;14.40;99.90
54178;DHT22;40085;53.004;6.770;2022-09-03T02:23:27;14.40;99.90
54178;DHT22;40085;53.004;6.770;2022-09-03T02:25:59;14.40;99.90
54178;DHT22;40085;53.004;6.770;2022-09-03T02:28:27;14.40;99.90
54178;DHT22;40085;53.004;6.770;2022-09-03T02:30:52;14.40;99.90
54178;DHT22;40085;53.004;6.770;2022-09-03T02:33:18;14.40;99.90
54178;DHT22;40085;53.004;6.770;2022-09-03T02:35:45;14.30;99.90
54178;DHT22;40085;53.004;6.770;2022-09-03T02:38:23;14.30;99.90
54178;DHT22;40085;53.004;6.770;2022-09-03T02:40:53;14.30;99.90
54178;DHT22;40085;53.004;6.770;2022-09-03T02:46:13;14.30;99.90
54178;DHT22;40085;53.004;6.770;2022-09-03T02:48:41;14.40;99.90
54178;DHT22;40085;53.004;6.770;2022-09-03T02:51:07;14.30;99.90
54178;DHT22;40085;53.004;6.770;2022-09-03T02:53:32;14.30;99.90
54178;DHT22;40085;53.004;6.770;2022-09-03T02:56:00;14.20;99.90
54178;DHT22;40085;53.004;6.770;2022-09-03T02:58:26;14.30;99.90
54178;DHT22;40085;53.004;6.770;2022-09-03T03:00:53;14.30;99.90
54178;DHT22;40085;53.004;6.770;2022-09-03T03:03:19;14.50;99.90
54178;DHT22;40085;53.004;6.770;2022-09-03T03:05:48;14.30;99.90
54178;DHT22;40085;53.004;6.770;2022-09-03T03:08:15;14.30;99.90
54178;DHT22;40085;53.004;6.770;2022-09-03T03:10:42;14.40;99.90
54178;DHT22;40085;53.004;6.770;2022-09-03T03:13:09;14.40;99.90
54178;DHT22;40085;53.004;6.770;2022-09-03T03:15:35;14.40;99.90
54178;DHT22;40085;53.004;6.770;2022-09-03T03:18:01;14.40;99.90
54178;DHT22;40085;53.004;6.770;2022-09-03T03:20:27;14.50;99.90
54178;DHT22;40085;53.004;6.770;2022-09-03T03:22:53;14.50;99.90
54178;DHT22;40085;53.004;6.770;2022-09-03T03:25:19;14.50;99.90
54178;DHT22;40085;53.004;6.770;2022-09-03T03:27:45;14.50;99.90
54178;DHT22;40085;53.004;6.770;2022-09-03T03:30:11;14.50;99.90
54178;DHT22;40085;53.004;6.770;2022-09-03T03:32:37;14.50;99.90
54178;DHT22;40085;53.004;6.770;2022-09-03T03:35:04;14.80;99.90
54178;DHT22;40085;53.004;6.770;2022-09-03T03:37:30;14.60;99.90
54178;DHT22;40085;53.004;6.770;2022-09-03T03:39:56;14.60;99.90
54178;DHT22;40085;53.004;6.770;2022-09-03T03:42:22;14.60;99.90
54178;DHT22;40085;53.004;6.770;2022-09-03T03:44:47;14.60;99.90
54178;DHT22;40085;53.004;6.770;2022-09-03T03:47:13;14.60;99.90
54178;DHT22;40085;53.004;6.770;2022-09-03T03:49:41;14.60;99.90
54178;DHT22;40085;53.004;6.770;2022-09-03T03:52:07;14.60;99.90
54178;DHT22;40085;53.004;6.770;2022-09-03T03:54:33;14.60;99.90
54178;DHT22;40085;53.004;6.770;2022-09-03T03:56:59;14.60;99.90
54178;DHT22;40085;53.004;6.770;2022-09-03T03:59:24;14.50;99.90
54178;DHT22;40085;53.004;6.770;2022-09-03T04:01:50;14.50;99.90
54178;DHT22;40085;53.004;6.770;2022-09-03T04:04:18;14.50;99.90
54178;DHT22;40085;53.004;6.770;2022-09-03T04:06:44;14.50;99.90
54178;DHT22;40085;53.004;6.770;2022-09-03T04:09:10;14.40;99.90
54178;DHT22;40085;53.004;6.770;2022-09-03T04:11:35;14.40;99.90
54178;DHT22;40085;53.004;6.770;2022-09-03T04:14:01;14.30;99.90
54178;DHT22;40085;53.004;6.770;2022-09-03T04:16:27;14.30;99.90
54178;DHT22;40085;53.004;6.770;2022-09-03T04:18:54;14.30;99.90
54178;DHT22;40085;53.004;6.770;2022-09-03T04:21:23;14.20;99.90
54178;DHT22;40085;53.004;6.770;2022-09-03T04:23:50;14.20;99.90
54178;DHT22;40085;53.004;6.770;2022-09-03T04:26:23;14.20;99.90
54178;DHT22;40085;53.004;6.770;2022-09-03T04:28:49;14.10;99.90
54178;DHT22;40085;53.004;6.770;2022-09-03T04:31:16;14.00;99.90
54178;DHT22;40085;53.004;6.770;2022-09-03T04:33:42;14.00;99.90
54178;DHT22;40085;53.004;6.770;2022-09-03T04:36:17;13.90;99.90
54178;DHT22;40085;53.004;6.770;2022-09-03T04:38:45;13.90;99.90
54178;DHT22;40085;53.004;6.770;2022-09-03T04:41:15;13.80;99.90
54178;DHT22;40085;53.004;6.770;2022-09-03T04:43:42;13.80;99.90
54178;DHT22;40085;53.004;6.770;2022-09-03T04:46:09;13.80;99.90
54178;DHT22;40085;53.004;6.770;2022-09-03T04:48:36;13.70;99.90
54178;DHT22;40085;53.004;6.770;2022-09-03T04:51:03;13.70;99.90
54178;DHT22;40085;53.004;6.770;2022-09-03T04:53:32;13.60;99.90
54178;DHT22;40085;53.004;6.770;2022-09-03T04:55:58;13.60;99.90
54178;DHT22;40085;53.004;6.770;2022-09-03T04:58:23;13.60;99.90
54178;DHT22;40085;53.004;6.770;2022-09-03T05:00:49;13.90;99.90
54178;DHT22;40085;53.004;6.770;2022-09-03T05:03:15;13.50;99.90
54178;DHT22;40085;53.004;6.770;2022-09-03T05:05:40;13.50;99.90
54178;DHT22;40085;53.004;6.770;2022-09-03T05:08:06;13.50;99.90
54178;DHT22;40085;53.004;6.770;2022-09-03T05:10:32;13.50;99.90
54178;DHT22;40085;53.004;6.770;2022-09-03T05:13:04;13.50;99.90
54178;DHT22;40085;53.004;6.770;2022-09-03T05:15:30;13.50;99.90
54178;DHT22;40085;53.004;6.770;2022-09-03T05:18:01;13.40;99.90
54178;DHT22;40085;53.004;6.770;2022-09-03T05:20:28;13.50;99.90
54178;DHT22;40085;53.004;6.770;2022-09-03T05:22:55;13.50;99.90
54178;DHT22;40085;53.004;6.770;2022-09-03T05:25:22;13.50;99.90
54178;DHT22;40085;53.004;6.770;2022-09-03T05:27:48;13.50;99.90
54178;DHT22;40085;53.004;6.770;2022-09-03T05:30:15;13.50;99.90
54178;DHT22;40085;53.004;6.770;2022-09-03T05:32:41;13.50;99.90
54178;DHT22;40085;53.004;6.770;2022-09-03T05:35:08;13.50;99.90
54178;DHT22;40085;53.004;6.770;2022-09-03T05:37:35;13.50;99.90
54178;DHT22;40085;53.004;6.770;2022-09-03T05:40:02;13.70;99.90
54178;DHT22;40085;53.004;6.770;2022-09-03T05:42:28;13.50;99.90
54178;DHT22;40085;53.004;6.770;2022-09-03T05:44:55;13.60;99.90
54178;DHT22;40085;53.004;6.770;2022-09-03T05:47:21;13.60;99.90
54178;DHT22;40085;53.004;6.770;2022-09-03T05:49:47;13.60;99.90
54178;DHT22;40085;53.004;6.770;2022-09-03T05:52:13;13.70;99.90
54178;DHT22;40085;53.004;6.770;2022-09-03T05:54:38;13.70;99.90
54178;DHT22;40085;53.004;6.770;2022-09-03T05:57:04;13.80;99.90
54178;DHT22;40085;53.004;6.770;2022-09-03T05:59:30;13.80;99.90
54178;DHT22;40085;53.004;6.770;2022-09-03T06:01:55;13.90;99.90
54178;DHT22;40085;53.004;6.770;2022-09-03T06:04:21;13.90;99.90
54178;DHT22;40085;53.004;6.770;2022-09-03T06:06:47;13.90;99.90
54178;DHT22;40085;53.004;6.770;2022-09-03T06:09:17;14.00;99.90
54178;DHT22;40085;53.004;6.770;2022-09-03T06:11:43;14.00;99.90
54178;DHT22;40085;53.004;6.770;2022-09-03T06:14:11;14.10;99.90
54178;DHT22;40085;53.004;6.770;2022-09-03T06:16:42;14.10;99.90
54178;DHT22;40085;53.004;6.770;2022-09-03T06:19:09;14.10;99.90
54178;DHT22;40085;53.004;6.770;2022-09-03T06:21:40;14.10;99.90
54178;DHT22;40085;53.004;6.770;2022-09-03T06:24:12;14.10;99.90
54178;DHT22;40085;53.004;6.770;2022-09-03T06:26:38;14.10;99.90
54178;DHT22;40085;53.004;6.770;2022-09-03T06:29:05;14.20;1.00
54178;DHT22;40085;53.004;6.770;2022-09-03T06:31:30;14.20;1.00
54178;DHT22;40085;53.004;6.770;2022-09-03T06:33:56;14.40;1.00
54178;DHT22;40085;53.004;6.770;2022-09-03T06:36:23;14.50;1.00
54178;DHT22;40085;53.004;6.770;2022-09-03T06:38:54;14.60;1.00
54178;DHT22;40085;53.004;6.770;2022-09-03T06:41:21;14.70;1.00
54178;DHT22;40085;53.004;6.770;2022-09-03T06:44:10;14.90;1.00
54178;DHT22;40085;53.004;6.770;2022-09-03T06:46:38;15.00;1.00
54178;DHT22;40085;53.004;6.770;2022-09-03T06:49:07;15.30;1.00
54178;DHT22;40085;53.004;6.770;2022-09-03T06:51:33;15.40;1.00
54178;DHT22;40085;53.004;6.770;2022-09-03T06:54:04;15.50;1.00
54178;DHT22;40085;53.004;6.770;2022-09-03T06:56:30;15.60;1.00
54178;DHT22;40085;53.004;6.770;2022-09-03T06:58:58;15.80;1.00
54178;DHT22;40085;53.004;6.770;2022-09-03T07:01:27;15.90;1.00
54178;DHT22;40085;53.004;6.770;2022-09-03T07:03:56;16.00;1.00
54178;DHT22;40085;53.004;6.770;2022-09-03T07:06:24;16.10;1.00
54178;DHT22;40085;53.004;6.770;2022-09-03T07:08:52;16.30;1.00
54178;DHT22;40085;53.004;6.770;2022-09-03T07:11:21;16.40;1.00
54178;DHT22;40085;53.004;6.770;2022-09-03T07:13:49;16.50;1.00
54178;DHT22;40085;53.004;6.770;2022-09-03T07:16:27;16.70;1.00
54178;DHT22;40085;53.004;6.770;2022-09-03T07:18:53;16.80;1.00
54178;DHT22;40085;53.004;6.770;2022-09-03T07:21:25;16.90;1.00
54178;DHT22;40085;53.004;6.770;2022-09-03T07:23:52;17.00;1.00
54178;DHT22;40085;53.004;6.770;2022-09-03T07:26:23;17.10;1.00
54178;DHT22;40085;53.004;6.770;2022-09-03T07:28:50;17.20;1.00
54178;DHT22;40085;53.004;6.770;2022-09-03T07:31:34;17.30;1.00
54178;DHT22;40085;53.004;6.770;2022-09-03T07:34:02;17.40;1.00
54178;DHT22;40085;53.004;6.770;2022-09-03T07:36:44;17.40;1.00
54178;DHT22;40085;53.004;6.770;2022-09-03T07:39:12;17.50;1.00
54178;DHT22;40085;53.004;6.770;2022-09-03T07:41:38;17.60;1.00
54178;DHT22;40085;53.004;6.770;2022-09-03T07:44:07;17.70;1.00
54178;DHT22;40085;53.004;6.770;2022-09-03T07:46:35;17.80;1.00
54178;DHT22;40085;53.004;6.770;2022-09-03T07:49:01;17.90;1.00
54178;DHT22;40085;53.004;6.770;2022-09-03T07:51:30;18.00;1.00
54178;DHT22;40085;53.004;6.770;2022-09-03T07:53:58;18.10;1.00
54178;DHT22;40085;53.004;6.770;2022-09-03T07:56:25;18.30;1.00
54178;DHT22;40085;53.004;6.770;2022-09-03T07:58:51;18.30;1.00
54178;DHT22;40085;53.004;6.770;2022-09-03T08:01:19;18.40;1.00
54178;DHT22;40085;53.004;6.770;2022-09-03T08:03:47;18.50;1.00
54178;DHT22;40085;53.004;6.770;2022-09-03T08:06:14;18.60;1.00
54178;DHT22;40085;53.004;6.770;2022-09-03T08:08:43;18.80;1.00
54178;DHT22;40085;53.004;6.770;2022-09-03T08:11:17;18.90;1.00
54178;DHT22;40085;53.004;6.770;2022-09-03T08:14:00;19.00;1.00
54178;DHT22;40085;53.004;6.770;2022-09-03T08:16:29;19.10;1.00
54178;DHT22;40085;53.004;6.770;2022-09-03T08:18:55;19.20;1.00
54178;DHT22;40085;53.004;6.770;2022-09-03T08:21:21;19.30;1.00
54178;DHT22;40085;53.004;6.770;2022-09-03T08:23:50;19.40;1.00
54178;DHT22;40085;53.004;6.770;2022-09-03T08:26:18;19.60;1.00
54178;DHT22;40085;53.004;6.770;2022-09-03T08:28:44;19.60;1.00
54178;DHT22;40085;53.004;6.770;2022-09-03T08:31:13;19.70;1.00
54178;DHT22;40085;53.004;6.770;2022-09-03T08:33:44;19.80;1.00
54178;DHT22;40085;53.004;6.770;2022-09-03T08:36:12;19.90;1.00
54178;DHT22;40085;53.004;6.770;2022-09-03T08:38:40;19.80;1.00
54178;DHT22;40085;53.004;6.770;2022-09-03T08:41:14;19.80;1.00
54178;DHT22;40085;53.004;6.770;2022-09-03T08:47:15;20.00;1.00
54178;DHT22;40085;53.004;6.770;2022-09-03T08:49:49;20.00;1.00
54178;DHT22;40085;53.004;6.770;2022-09-03T08:52:38;20.10;1.00
54178;DHT22;40085;53.004;6.770;2022-09-03T08:55:25;20.00;1.00
54178;DHT22;40085;53.004;6.770;2022-09-03T08:58:06;20.10;1.00
54178;DHT22;40085;53.004;6.770;2022-09-03T09:07:02;20.40;1.00
54178;DHT22;40085;53.004;6.770;2022-09-03T09:17:35;20.70;99.90
54178;DHT22;40085;53.004;6.770;2022-09-03T09:23:09;20.70;1.00
54178;DHT22;40085;53.004;6.770;2022-09-03T09:25:47;20.80;2.50
54178;DHT22;40085;53.004;6.770;2022-09-03T09:28:17;21.00;1.00
54178;DHT22;40085;53.004;6.770;2022-09-03T09:30:46;21.00;1.00
54178;DHT22;40085;53.004;6.770;2022-09-03T09:33:13;21.20;21.50
54178;DHT22;40085;53.004;6.770;2022-09-03T09:35:39;21.10;1.00
54178;DHT22;40085;53.004;6.770;2022-09-03T09:38:07;21.20;1.00
54178;DHT22;40085;53.004;6.770;2022-09-03T09:40:36;21.10;1.00
54178;DHT22;40085;53.004;6.770;2022-09-03T09:45:33;21.60;99.90
54178;DHT22;40085;53.004;6.770;2022-09-03T09:48:00;21.70;99.90
54178;DHT22;40085;53.004;6.770;2022-09-03T09:53:06;21.80;99.90
54178;DHT22;40085;53.004;6.770;2022-09-03T10:00:39;22.20;1.00
54178;DHT22;40085;53.004;6.770;2022-09-03T10:03:10;22.30;1.00
54178;DHT22;40085;53.004;6.770;2022-09-03T10:05:38;22.60;99.90
54178;DHT22;40085;53.004;6.770;2022-09-03T10:08:25;22.70;1.00
54178;DHT22;40085;53.004;6.770;2022-09-03T10:10:51;22.80;1.00
54178;DHT22;40085;53.004;6.770;2022-09-03T10:13:33;22.80;90.40
54178;DHT22;40085;53.004;6.770;2022-09-03T10:26:25;23.20;1.00
54178;DHT22;40085;53.004;6.770;2022-09-03T10:29:00;23.20;1.00
54178;DHT22;40085;53.004;6.770;2022-09-03T10:31:44;23.30;1.00
54178;DHT22;40085;53.004;6.770;2022-09-03T10:39:38;23.40;1.00
54178;DHT22;40085;53.004;6.770;2022-09-03T10:42:34;23.50;1.00
54178;DHT22;40085;53.004;6.770;2022-09-03T10:45:16;23.50;1.00
54178;DHT22;40085;53.004;6.770;2022-09-03T10:48:27;23.50;1.00
54178;DHT22;40085;53.004;6.770;2022-09-03T10:51:04;23.60;1.00
54178;DHT22;40085;53.004;6.770;2022-09-03T11:01:42;23.60;1.00
54178;DHT22;40085;53.004;6.770;2022-09-03T11:04:42;23.50;1.00
54178;DHT22;40085;53.004;6.770;2022-09-03T11:07:17;23.50;1.00
54178;DHT22;40085;53.004;6.770;2022-09-03T11:09:56;23.60;1.00
54178;DHT22;40085;53.004;6.770;2022-09-03T11:12:35;23.60;1.00
54178;DHT22;40085;53.004;6.770;2022-09-03T11:20:39;23.70;1.00
54178;DHT22;40085;53.004;6.770;2022-09-03T11:23:07;23.80;1.00
54178;DHT22;40085;53.004;6.770;2022-09-03T11:25:42;23.80;1.00
54178;DHT22;40085;53.004;6.770;2022-09-03T11:34:15;23.90;1.00
54178;DHT22;40085;53.004;6.770;2022-09-03T11:36:44;24.00;1.00
54178;DHT22;40085;53.004;6.770;2022-09-03T11:39:38;24.00;1.00
54178;DHT22;40085;53.004;6.770;2022-09-03T11:42:21;24.00;1.00
54178;DHT22;40085;53.004;6.770;2022-09-03T11:44:50;24.10;1.00
54178;DHT22;40085;53.004;6.770;2022-09-03T11:49:47;24.30;1.00
54178;DHT22;40085;53.004;6.770;2022-09-03T11:52:29;24.50;99.90
54178;DHT22;40085;53.004;6.770;2022-09-03T11:55:06;24.40;64.40
54178;DHT22;40085;53.004;6.770;2022-09-03T11:57:39;24.50;99.90
54178;DHT22;40085;53.004;6.770;2022-09-03T12:00:14;24.60;99.90
54178;DHT22;40085;53.004;6.770;2022-09-03T12:02:59;24.60;1.00
54178;DHT22;40085;53.004;6.770;2022-09-03T12:18:32;24.60;1.00
54178;DHT22;40085;53.004;6.770;2022-09-03T12:26:05;24.70;99.90
54178;DHT22;40085;53.004;6.770;2022-09-03T12:28:36;24.80;99.90
54178;DHT22;40085;53.004;6.770;2022-09-03T12:31:07;24.80;99.90
54178;DHT22;40085;53.004;6.770;2022-09-03T12:34:04;24.70;1.00
54178;DHT22;40085;53.004;6.770;2022-09-03T12:36:47;24.90;1.00
54178;DHT22;40085;53.004;6.770;2022-09-03T12:39:19;24.60;1.00
54178;DHT22;40085;53.004;6.770;2022-09-03T12:42:03;24.60;1.00
54178;DHT22;40085;53.004;6.770;2022-09-03T12:44:38;24.60;1.00
54178;DHT22;40085;53.004;6.770;2022-09-03T12:49:43;24.60;1.00
54178;DHT22;40085;53.004;6.770;2022-09-03T13:00:37;24.90;1.00
54178;DHT22;40085;53.004;6.770;2022-09-03T13:03:11;24.90;99.90
54178;DHT22;40085;53.004;6.770;2022-09-03T13:05:46;24.80;99.90
54178;DHT22;40085;53.004;6.770;2022-09-03T13:08:25;24.80;99.90
54178;DHT22;40085;53.004;6.770;2022-09-03T13:10:55;24.80;99.90
54178;DHT22;40085;53.004;6.770;2022-09-03T13:13:35;24.70;99.90
54178;DHT22;40085;53.004;6.770;2022-09-03T13:21:17;24.80;99.90
54178;DHT22;40085;53.004;6.770;2022-09-03T13:29:36;24.80;99.90
54178;DHT22;40085;53.004;6.770;2022-09-03T13:35:03;24.90;99.90
54178;DHT22;40085;53.004;6.770;2022-09-03T13:40:18;25.10;99.90
54178;DHT22;40085;53.004;6.770;2022-09-03T13:42:52;25.10;1.00
54178;DHT22;40085;53.004;6.770;2022-09-03T13:45:56;25.00;1.00
54178;DHT22;40085;53.004;6.770;2022-09-03T13:48:43;24.90;1.00
54178;DHT22;40085;53.004;6.770;2022-09-03T13:54:11;24.70;1.00
54178;DHT22;40085;53.004;6.770;2022-09-03T14:02:17;24.70;99.90
54178;DHT22;40085;53.004;6.770;2022-09-03T14:07:57;24.80;99.90
54178;DHT22;40085;53.004;6.770;2022-09-03T14:21:53;24.90;1.00
54178;DHT22;40085;53.004;6.770;2022-09-03T14:24:43;25.00;1.00
54178;DHT22;40085;53.004;6.770;2022-09-03T14:27:25;25.10;1.00
54178;DHT22;40085;53.004;6.770;2022-09-03T14:30:00;25.00;1.00
54178;DHT22;40085;53.004;6.770;2022-09-03T14:32:30;25.10;1.00
54178;DHT22;40085;53.004;6.770;2022-09-03T14:54:54;24.90;1.00
54178;DHT22;40085;53.004;6.770;2022-09-03T15:00:21;24.80;1.00
54178;DHT22;40085;53.004;6.770;2022-09-03T15:03:27;24.90;1.00
54178;DHT22;40085;53.004;6.770;2022-09-03T15:09:10;24.80;1.00
54178;DHT22;40085;53.004;6.770;2022-09-03T15:12:00;24.90;1.00
54178;DHT22;40085;53.004;6.770;2022-09-03T15:15:07;25.00;1.00
54178;DHT22;40085;53.004;6.770;2022-09-03T15:23:15;25.20;1.00
54178;DHT22;40085;53.004;6.770;2022-09-03T15:26:37;25.00;1.00
54178;DHT22;40085;53.004;6.770;2022-09-03T15:28:44;25.10;99.90
54178;DHT22;40085;53.004;6.770;2022-09-03T15:40:27;25.20;99.90
54178;DHT22;40085;53.004;6.770;2022-09-03T15:43:06;25.00;99.90
54178;DHT22;40085;53.004;6.770;2022-09-03T15:45:40;25.10;99.90
54178;DHT22;40085;53.004;6.770;2022-09-03T15:48:36;24.90;99.90
54178;DHT22;40085;53.004;6.770;2022-09-03T15:51:16;24.80;99.90
54178;DHT22;40085;53.004;6.770;2022-09-03T15:53:59;24.80;99.90
54178;DHT22;40085;53.004;6.770;2022-09-03T15:56:57;24.80;99.90
54178;DHT22;40085;53.004;6.770;2022-09-03T16:07:30;24.40;99.90
54178;DHT22;40085;53.004;6.770;2022-09-03T16:15:19;24.40;99.90
54178;DHT22;40085;53.004;6.770;2022-09-03T16:21:37;24.30;99.90
54178;DHT22;40085;53.004;6.770;2022-09-03T16:29:00;24.00;99.90
54178;DHT22;40085;53.004;6.770;2022-09-03T16:37:21;24.00;8.30
54178;DHT22;40085;53.004;6.770;2022-09-03T16:39:56;23.90;13.20
54178;DHT22;40085;53.004;6.770;2022-09-03T16:45:02;24.10;50.40
54178;DHT22;40085;53.004;6.770;2022-09-03T16:47:46;24.00;1.00
54178;DHT22;40085;53.004;6.770;2022-09-03T17:04:05;23.40;1.00
54178;DHT22;40085;53.004;6.770;2022-09-03T17:06:41;23.40;1.00
54178;DHT22;40085;53.004;6.770;2022-09-03T17:17:43;23.30;1.00
54178;DHT22;40085;53.004;6.770;2022-09-03T17:20:13;23.30;1.00
54178;DHT22;40085;53.004;6.770;2022-09-03T17:25:35;23.30;1.00
54178;DHT22;40085;53.004;6.770;2022-09-03T17:30:47;23.10;1.00
54178;DHT22;40085;53.004;6.770;2022-09-03T17:33:37;23.00;1.00
54178;DHT22;40085;53.004;6.770;2022-09-03T17:36:10;22.90;1.00
54178;DHT22;40085;53.004;6.770;2022-09-03T17:41:58;22.60;1.00
54178;DHT22;40085;53.004;6.770;2022-09-03T17:53:01;22.10;1.00
54178;DHT22;40085;53.004;6.770;2022-09-03T17:56:03;22.00;1.00
54178;DHT22;40085;53.004;6.770;2022-09-03T17:58:40;21.90;1.00
54178;DHT22;40085;53.004;6.770;2022-09-03T18:03:44;21.70;1.00
54178;DHT22;40085;53.004;6.770;2022-09-03T18:12:55;21.40;1.00
54178;DHT22;40085;53.004;6.770;2022-09-03T18:17:52;21.20;1.00
54178;DHT22;40085;53.004;6.770;2022-09-03T18:20:21;21.20;1.00
54178;DHT22;40085;53.004;6.770;2022-09-03T18:26:11;21.00;1.00
54178;DHT22;40085;53.004;6.770;2022-09-03T18:57:18;20.20;1.00
54178;DHT22;40085;53.004;6.770;2022-09-03T19:00:08;19.90;1.00
54178;DHT22;40085;53.004;6.770;2022-09-03T19:10:00;19.70;99.90
54178;DHT22;40085;53.004;6.770;2022-09-03T19:12:41;19.60;99.90
54178;DHT22;40085;53.004;6.770;2022-09-03T19:15:33;19.50;99.90
54178;DHT22;40085;53.004;6.770;2022-09-03T19:21:51;19.40;99.90
54178;DHT22;40085;53.004;6.770;2022-09-03T19:24:37;19.30;99.90
54178;DHT22;40085;53.004;6.770;2022-09-03T19:30:40;19.10;99.90
54178;DHT22;40085;53.004;6.770;2022-09-03T19:36:56;18.90;99.90
54178;DHT22;40085;53.004;6.770;2022-09-03T19:45:53;18.70;99.90
54178;DHT22;40085;53.004;6.770;2022-09-03T19:49:10;18.70;99.90
54178;DHT22;40085;53.004;6.770;2022-09-03T19:54:57;18.60;99.90
54178;DHT22;40085;53.004;6.770;2022-09-03T19:57:44;18.60;99.90
54178;DHT22;40085;53.004;6.770;2022-09-03T20:00:30;18.60;99.90
54178;DHT22;40085;53.004;6.770;2022-09-03T20:03:15;18.50;99.90
54178;DHT22;40085;53.004;6.770;2022-09-03T20:06:05;18.40;99.90
54178;DHT22;40085;53.004;6.770;2022-09-03T20:08:50;18.40;99.90
54178;DHT22;40085;53.004;6.770;2022-09-03T20:11:37;18.40;99.90
54178;DHT22;40085;53.004;6.770;2022-09-03T20:14:10;18.30;99.90
54178;DHT22;40085;53.004;6.770;2022-09-03T20:22:05;18.30;99.90
54178;DHT22;40085;53.004;6.770;2022-09-03T20:31:01;18.10;99.90
54178;DHT22;40085;53.004;6.770;2022-09-03T20:34:21;18.00;99.90
54178;DHT22;40085;53.004;6.770;2022-09-03T20:37:02;18.00;99.90
54178;DHT22;40085;53.004;6.770;2022-09-03T20:39:40;17.90;99.90
54178;DHT22;40085;53.004;6.770;2022-09-03T20:47:57;17.80;99.90
54178;DHT22;40085;53.004;6.770;2022-09-03T20:50:53;17.70;99.90
54178;DHT22;40085;53.004;6.770;2022-09-03T20:53:24;17.70;99.90
54178;DHT22;40085;53.004;6.770;2022-09-03T20:56:00;17.60;99.90
54178;DHT22;40085;53.004;6.770;2022-09-03T21:01:42;17.70;99.90
54178;DHT22;40085;53.004;6.770;2022-09-03T21:04:39;17.70;99.90
54178;DHT22;40085;53.004;6.770;2022-09-03T21:16:11;17.30;99.90
54178;DHT22;40085;53.004;6.770;2022-09-03T21:20:43;17.10;99.90
54178;DHT22;40085;53.004;6.770;2022-09-03T21:23:15;17.10;99.90
54178;DHT22;40085;53.004;6.770;2022-09-03T21:26:00;17.00;99.90
54178;DHT22;40085;53.004;6.770;2022-09-03T21:28:40;16.90;99.90
54178;DHT22;40085;53.004;6.770;2022-09-03T21:31:25;16.90;99.90
54178;DHT22;40085;53.004;6.770;2022-09-03T21:34:08;16.90;99.90
54178;DHT22;40085;53.004;6.770;2022-09-03T21:36:34;16.90;99.90
54178;DHT22;40085;53.004;6.770;2022-09-03T21:39:11;16.90;99.90
54178;DHT22;40085;53.004;6.770;2022-09-03T21:41:46;16.90;99.90
54178;DHT22;40085;53.004;6.770;2022-09-03T21:44:54;16.80;99.90
54178;DHT22;40085;53.004;6.770;2022-09-03T21:47:25;16.90;99.90
54178;DHT22;40085;53.004;6.770;2022-09-03T21:49:53;16.90;99.90
54178;DHT22;40085;53.004;6.770;2022-09-03T21:55:21;16.80;99.90
54178;DHT22;40085;53.004;6.770;2022-09-03T21:58:15;16.90;99.90
54178;DHT22;40085;53.004;6.770;2022-09-03T22:00:45;16.90;99.90
54178;DHT22;40085;53.004;6.770;2022-09-03T22:03:13;16.90;99.90
54178;DHT22;40085;53.004;6.770;2022-09-03T22:06:02;16.90;99.90
54178;DHT22;40085;53.004;6.770;2022-09-03T22:11:08;16.90;99.90
54178;DHT22;40085;53.004;6.770;2022-09-03T22:16:37;16.80;99.90
54178;DHT22;40085;53.004;6.770;2022-09-03T22:19:04;16.80;99.90
54178;DHT22;40085;53.004;6.770;2022-09-03T22:22:14;16.80;99.90
54178;DHT22;40085;53.004;6.770;2022-09-03T22:25:04;16.80;99.90
54178;DHT22;40085;53.004;6.770;2022-09-03T22:30:36;16.70;99.90
54178;DHT22;40085;53.004;6.770;2022-09-03T22:33:23;16.70;99.90
54178;DHT22;40085;53.004;6.770;2022-09-03T22:41:09;16.60;99.90
54178;DHT22;40085;53.004;6.770;2022-09-03T22:43:45;16.60;99.90
54178;DHT22;40085;53.004;6.770;2022-09-03T22:46:16;16.60;99.90
54178;DHT22;40085;53.004;6.770;2022-09-03T22:48:50;16.60;99.90
54178;DHT22;40085;53.004;6.770;2022-09-03T22:51:17;16.50;99.90
54178;DHT22;40085;53.004;6.770;2022-09-03T22:54:11;16.50;99.90
54178;DHT22;40085;53.004;6.770;2022-09-03T22:56:41;16.50;99.90
54178;DHT22;40085;53.004;6.770;2022-09-03T22:59:28;16.50;99.90
54178;DHT22;40085;53.004;6.770;2022-09-03T23:02:09;16.50;99.90
54178;DHT22;40085;53.004;6.770;2022-09-03T23:04:54;16.40;99.90
54178;DHT22;40085;53.004;6.770;2022-09-03T23:07:29;16.40;99.90
54178;DHT22;40085;53.004;6.770;2022-09-03T23:10:16;16.40;99.90
54178;DHT22;40085;53.004;6.770;2022-09-03T23:16:00;16.40;99.90